Time;durP1;ratioP1;P1;durP2;ratioP2;P2;SDS_P1;SDS_P2;PMS_P1;PMS_P2;Temp;Humidity;BMP_temperature;BMP_pressure;BME280_temperature;BME280_humidity;BME280_pressure;Samples;Min_cycle;Max_cycle;Signal;HPM_P1;HPM_P2
2022/05/04 00:00:12;;;;;;;;;63.25;51.75;18.70;45.20;;;;;;4701364;30;8945;-72
2022/05/04 00:02:39;;;;;;;;;59.75;48.50;18.70;45.30;;;;;;4701447;30;8817;-72
2022/05/04 00:05:06;;;;;;;;;53.25;44.25;18.60;45.40;;;;;;4701424;30;8813;-72
2022/05/04 00:07:32;;;;;;;;;52.25;44.00;18.60;45.70;;;;;;4701677;30;8907;-71
2022/05/04 00:09:58;;;;;;;;;46.50;40.50;18.50;45.80;;;;;;4701842;30;8863;-71
2022/05/04 00:12:25;;;;;;;;;49.50;40.00;18.50;45.60;;;;;;4701262;30;8929;-73
2022/05/04 00:14:51;;;;;;;;;49.50;41.00;18.40;46.00;;;;;;4701340;30;9512;-72
2022/05/04 00:17:17;;;;;;;;;45.00;36.50;18.40;46.00;;;;;;4701320;30;8837;-72
2022/05/04 00:19:43;;;;;;;;;47.75;39.25;18.40;46.00;;;;;;4700640;30;8861;-71
2022/05/04 00:22:08;;;;;;;;;42.25;38.25;18.30;46.20;;;;;;4701170;30;8937;-71
2022/05/04 00:24:34;;;;;;;;;43.75;36.00;18.20;46.10;;;;;;4701379;30;8910;-71
2022/05/04 00:27:00;;;;;;;;;41.75;35.00;18.20;46.20;;;;;;4714613;30;8853;-71
2022/05/04 00:29:26;;;;;;;;;45.75;40.00;18.00;46.50;;;;;;4701104;30;9465;-71
2022/05/04 00:31:52;;;;;;;;;44.33;38.00;17.60;47.20;;;;;;4701155;30;8821;-72
2022/05/04 00:34:17;;;;;;;;;42.00;36.67;17.50;47.60;;;;;;4701095;30;8818;-72
2022/05/04 00:36:43;;;;;;;;;43.33;37.00;17.40;48.10;;;;;;4700922;30;8952;-72
2022/05/04 00:39:09;;;;;;;;;44.25;37.00;17.50;47.70;;;;;;4700886;30;8877;-71
2022/05/04 00:41:34;;;;;;;;;35.00;31.67;17.50;47.60;;;;;;4701242;30;8826;-72
2022/05/04 00:44:00;;;;;;;;;38.67;34.67;17.30;48.20;;;;;;4700980;30;8863;-71
2022/05/04 00:46:26;;;;;;;;;38.00;34.33;17.20;48.30;;;;;;4700840;30;8818;-72
2022/05/04 00:48:51;;;;;;;;;36.25;33.25;17.30;48.30;;;;;;4700992;30;8806;-71
2022/05/04 00:51:17;;;;;;;;;38.33;34.67;17.40;48.10;;;;;;4700959;30;8893;-72
2022/05/04 00:53:44;;;;;;;;;36.25;34.00;17.40;48.00;;;;;;4700901;30;8967;-72
2022/05/04 00:56:10;;;;;;;;;35.00;33.67;17.50;47.70;;;;;;4700935;30;8866;-72
2022/05/04 00:58:56;;;;;;;;;36.00;31.67;17.70;47.50;;;;;;4700989;30;9603;-72
2022/05/04 01:01:29;;;;;;;;;35.33;32.00;17.70;47.20;;;;;;4699777;30;8841;-72
2022/05/04 01:03:57;;;;;;;;;37.00;33.00;17.80;47.20;;;;;;4700889;30;8806;-72
2022/05/04 01:06:24;;;;;;;;;42.50;37.25;17.80;47.40;;;;;;4700798;30;8814;-71
2022/05/04 01:08:50;;;;;;;;;53.25;43.50;17.90;47.60;;;;;;4700752;30;8960;-72
2022/05/04 01:11:16;;;;;;;;;59.00;48.50;17.90;48.00;;;;;;4700806;30;8818;-72
2022/05/04 01:13:43;;;;;;;;;61.25;49.25;18.00;47.80;;;;;;4700753;30;8910;-72
2022/05/04 01:16:09;;;;;;;;;63.75;51.00;18.00;48.00;;;;;;4700905;30;8825;-72
2022/05/04 01:18:35;;;;;;;;;61.75;49.00;18.00;48.10;;;;;;4700596;30;8935;-71
2022/05/04 01:21:03;;;;;;;;;63.50;51.00;17.90;48.10;;;;;;4700594;30;9517;-71
2022/05/04 01:23:28;;;;;;;;;69.00;53.25;18.00;48.50;;;;;;4700676;30;8829;-71
2022/05/04 01:25:56;;;;;;;;;66.50;53.25;18.00;48.50;;;;;;4700525;30;8829;-72
2022/05/04 01:28:21;;;;;;;;;66.50;53.75;18.20;48.30;;;;;;4700554;30;8843;-71
2022/05/04 01:30:47;;;;;;;;;64.00;51.00;18.20;48.10;;;;;;4701146;30;8813;-72
2022/05/04 01:33:13;;;;;;;;;66.75;54.75;18.10;48.40;;;;;;4704110;30;8833;-72
2022/05/04 01:35:39;;;;;;;;;68.25;54.25;18.10;48.60;;;;;;4703858;30;8904;-70
2022/05/04 01:38:04;;;;;;;;;68.00;55.00;18.10;48.60;;;;;;4717153;30;8911;-70
2022/05/04 01:40:30;;;;;;;;;66.00;54.00;18.10;48.80;;;;;;4703693;30;8790;-71
2022/05/04 01:42:56;;;;;;;;;67.25;54.00;18.20;48.90;;;;;;4703958;30;8829;-73
2022/05/04 01:45:22;;;;;;;;;67.00;53.75;18.10;48.60;;;;;;4703655;30;9495;-71
2022/05/04 01:47:49;;;;;;;;;67.50;54.25;18.10;48.70;;;;;;4717107;30;8869;-72
2022/05/04 01:50:16;;;;;;;;;65.00;52.50;18.10;49.00;;;;;;4703623;30;8922;-72
2022/05/04 01:52:41;;;;;;;;;65.25;53.00;18.00;48.90;;;;;;4703576;30;8829;-72
2022/05/04 01:55:08;;;;;;;;;67.50;54.25;18.10;49.30;;;;;;4703530;30;8814;-73
2022/05/04 01:57:34;;;;;;;;;67.25;54.25;17.90;49.50;;;;;;4716745;30;8884;-73
2022/05/04 02:00:00;;;;;;;;;65.00;51.75;18.00;49.40;;;;;;4703360;30;8869;-72
2022/05/04 02:02:27;;;;;;;;;66.25;53.50;18.10;49.10;;;;;;4703338;30;8841;-73
2022/05/04 02:04:53;;;;;;;;;64.50;51.25;18.10;49.20;;;;;;4703311;30;8825;-71
2022/05/04 02:07:19;;;;;;;;;68.50;54.00;18.10;49.20;;;;;;4703326;30;8936;-71
2022/05/04 02:09:46;;;;;;;;;71.50;57.25;17.90;49.40;;;;;;4703500;30;8825;-71
2022/05/04 02:12:12;;;;;;;;;67.75;53.50;18.00;48.80;;;;;;4703248;30;8822;-71
2022/05/04 02:14:38;;;;;;;;;70.50;58.00;18.00;48.60;;;;;;4703180;30;8829;-71
2022/05/04 02:17:04;;;;;;;;;68.25;54.50;18.00;48.90;;;;;;4703189;30;8868;-71
2022/05/04 02:19:30;;;;;;;;;66.75;53.50;17.90;48.10;;;;;;4701987;30;8889;-71
2022/05/04 02:21:56;;;;;;;;;68.50;55.00;17.80;48.70;;;;;;4703137;30;8821;-71
2022/05/04 02:24:21;;;;;;;;;70.75;55.50;17.80;48.90;;;;;;4703227;30;9505;-71
2022/05/04 02:26:47;;;;;;;;;69.50;57.00;17.80;48.90;;;;;;4702994;30;8821;-71
2022/05/04 02:29:13;;;;;;;;;67.50;54.00;17.70;49.50;;;;;;4703097;30;8986;-72
2022/05/04 02:31:38;;;;;;;;;65.75;54.00;17.70;49.10;;;;;;4702147;30;8834;-71
2022/05/04 02:34:04;;;;;;;;;69.00;55.50;17.80;48.60;;;;;;4703311;30;8825;-72
2022/05/04 02:39:14;;;;;;;;;71.50;56.50;17.80;48.10;;;;;;4702879;30;8976;-71
2022/05/04 02:41:39;;;;;;;;;70.75;57.00;17.80;48.30;;;;;;4702996;30;8946;-72
2022/05/04 02:44:05;;;;;;;;;66.00;52.00;17.70;48.20;;;;;;4702203;30;8836;-71
2022/05/04 02:46:31;;;;;;;;;68.25;54.50;17.80;48.20;;;;;;4701640;30;8937;-71
2022/05/04 02:48:57;;;;;;;;;67.50;54.00;17.70;48.20;;;;;;4702899;30;8932;-71
2022/05/04 02:51:23;;;;;;;;;65.75;54.25;17.70;48.30;;;;;;4702561;30;9566;-71
2022/05/04 02:53:48;;;;;;;;;70.25;55.75;17.60;48.60;;;;;;4702551;30;8844;-72
2022/05/04 02:56:15;;;;;;;;;66.25;53.25;17.60;48.20;;;;;;4702390;30;8891;-71
2022/05/04 02:58:45;;;;;;;;;71.00;56.75;17.70;48.10;;;;;;4702411;30;8983;-71
2022/05/04 03:04:06;;;;;;;;;68.75;54.00;17.40;48.80;;;;;;4702479;30;8786;-71
2022/05/04 03:06:36;;;;;;;;;65.00;52.50;17.40;49.00;;;;;;4702308;30;8838;-71
2022/05/04 03:09:02;;;;;;;;;60.75;49.50;17.40;48.60;;;;;;4700759;30;8809;-71
2022/05/04 03:14:13;;;;;;;;;61.25;51.25;17.40;48.40;;;;;;4701270;30;8798;-71
2022/05/04 03:16:39;;;;;;;;;72.50;56.75;17.40;48.60;;;;;;4702271;30;9473;-71
2022/05/04 03:19:06;;;;;;;;;64.00;52.25;17.30;48.50;;;;;;4702249;30;8861;-71
2022/05/04 03:21:32;;;;;;;;;70.00;55.25;17.20;49.10;;;;;;4702081;30;9465;-71
2022/05/04 03:23:58;;;;;;;;;64.00;49.25;17.20;49.00;;;;;;4702309;30;8814;-71
2022/05/04 03:26:27;;;;;;;;;66.25;54.25;17.00;49.20;;;;;;4702081;30;9434;-72
2022/05/04 03:28:53;;;;;;;;;61.00;50.25;17.00;49.10;;;;;;4701958;30;8829;-72
2022/05/04 03:31:19;;;;;;;;;69.50;55.25;17.00;49.60;;;;;;4702165;30;9520;-71
2022/05/04 03:33:45;;;;;;;;;70.75;55.25;17.00;49.20;;;;;;4701870;30;8801;-71
2022/05/04 03:36:11;;;;;;;;;65.50;52.25;17.10;48.80;;;;;;4701805;30;8832;-71
2022/05/04 03:38:37;;;;;;;;;62.50;50.50;17.20;48.70;;;;;;4701443;30;8842;-71
2022/05/04 03:41:03;;;;;;;;;64.50;52.00;17.10;48.90;;;;;;4702161;30;8802;-71
2022/05/04 03:43:28;;;;;;;;;65.25;52.00;17.10;49.00;;;;;;4701934;30;8920;-71
2022/05/04 03:45:54;;;;;;;;;60.75;49.00;17.20;49.00;;;;;;4701822;30;9689;-71
2022/05/04 03:48:21;;;;;;;;;58.00;49.25;17.10;48.90;;;;;;4697525;30;8891;-71
2022/05/04 03:50:47;;;;;;;;;61.75;50.00;16.90;49.30;;;;;;4701944;30;8821;-70
2022/05/04 03:53:14;;;;;;;;;59.25;47.75;16.50;50.10;;;;;;4701614;30;8829;-71
2022/05/04 03:55:40;;;;;;;;;64.00;50.25;16.80;50.10;;;;;;4700812;30;8842;-71
2022/05/04 03:58:05;;;;;;;;;56.00;47.00;16.80;49.50;;;;;;4701751;30;8861;-71
2022/05/04 04:00:31;;;;;;;;;67.00;52.50;16.90;49.60;;;;;;4701427;30;8845;-71
2022/05/04 04:02:57;;;;;;;;;60.25;50.25;17.00;49.50;;;;;;4701702;30;8829;-71
2022/05/04 04:05:23;;;;;;;;;58.50;48.50;17.10;49.10;;;;;;4701797;30;9441;-71
2022/05/04 04:07:50;;;;;;;;;57.00;46.00;17.20;49.00;;;;;;4701770;30;8835;-71
2022/05/04 04:10:15;;;;;;;;;57.50;48.00;17.30;48.70;;;;;;4701396;30;8852;-71
2022/05/04 04:12:41;;;;;;;;;59.50;47.00;17.30;48.90;;;;;;4701385;30;8829;-71
2022/05/04 04:15:07;;;;;;;;;67.00;53.50;17.20;49.00;;;;;;4701581;30;8821;-72
2022/05/04 04:17:33;;;;;;;;;52.00;44.00;17.30;49.10;;;;;;4701541;30;8853;-71
2022/05/04 04:22:43;;;;;;;;;66.25;53.25;17.40;49.10;;;;;;4701510;30;8814;-71
2022/05/04 04:25:10;;;;;;;;;69.25;55.50;17.40;48.70;;;;;;4701428;30;8836;-72
2022/05/04 04:27:36;;;;;;;;;60.50;49.25;17.50;48.70;;;;;;4701163;30;8798;-71
2022/05/04 04:30:01;;;;;;;;;64.00;51.75;17.60;48.50;;;;;;4701460;30;8813;-71
2022/05/04 04:32:27;;;;;;;;;64.50;52.00;17.60;48.40;;;;;;4701320;30;8831;-71
2022/05/04 04:34:53;;;;;;;;;61.50;50.25;17.60;48.60;;;;;;4714525;30;8923;-71
2022/05/04 04:37:19;;;;;;;;;68.00;54.00;17.60;48.80;;;;;;4701278;30;8817;-71
2022/05/04 04:39:44;;;;;;;;;64.25;51.00;17.70;48.80;;;;;;4699302;30;8846;-70
2022/05/04 04:42:12;;;;;;;;;64.25;52.00;17.70;48.70;;;;;;4700926;30;8830;-74
2022/05/04 04:44:38;;;;;;;;;58.75;48.00;17.70;49.00;;;;;;4701223;30;8817;-74
2022/05/04 04:47:04;;;;;;;;;50.25;42.25;17.80;48.90;;;;;;4700837;30;8869;-69
2022/05/04 04:49:30;;;;;;;;;59.50;48.00;17.80;49.10;;;;;;4701098;30;8838;-69
2022/05/04 04:51:56;;;;;;;;;61.25;50.00;17.90;49.10;;;;;;4700718;30;8871;-68
2022/05/04 04:54:21;;;;;;;;;58.75;49.25;17.80;48.70;;;;;;4700932;30;8834;-70
2022/05/04 04:56:47;;;;;;;;;60.50;49.75;17.90;48.50;;;;;;4700772;30;8972;-71
2022/05/04 04:59:13;;;;;;;;;63.25;49.25;18.00;48.60;;;;;;4699808;30;8869;-69
2022/05/04 05:01:39;;;;;;;;;58.25;46.75;18.10;48.60;;;;;;4700419;30;8838;-69
2022/05/04 05:04:04;;;;;;;;;60.25;49.25;18.20;48.70;;;;;;4700949;30;9782;-71
2022/05/04 05:06:30;;;;;;;;;59.00;49.25;18.20;48.20;;;;;;4702574;30;8927;-70
2022/05/04 05:08:56;;;;;;;;;61.00;50.00;18.20;48.40;;;;;;4704494;30;8924;-69
2022/05/04 05:11:22;;;;;;;;;65.00;51.00;18.10;48.20;;;;;;4704429;30;9484;-69
2022/05/04 05:16:32;;;;;;;;;55.25;46.75;18.10;48.20;;;;;;4703306;30;8919;-70
2022/05/04 05:18:58;;;;;;;;;61.25;50.25;18.20;48.30;;;;;;4703870;30;8964;-70
2022/05/04 05:21:23;;;;;;;;;61.00;48.25;18.30;48.50;;;;;;4703302;30;9532;-70
2022/05/04 05:23:49;;;;;;;;;59.50;49.00;18.40;47.80;;;;;;4703303;30;8841;-70
2022/05/04 05:26:15;;;;;;;;;60.25;49.25;18.50;48.00;;;;;;4703910;30;9488;-70
2022/05/04 05:28:41;;;;;;;;;57.75;47.75;18.60;47.40;;;;;;4704248;30;8825;-70
2022/05/04 05:31:07;;;;;;;;;55.75;45.50;18.60;47.80;;;;;;4703916;30;8845;-70
2022/05/04 05:33:32;;;;;;;;;53.75;44.25;18.70;47.80;;;;;;4703932;30;8915;-71
2022/05/04 05:35:58;;;;;;;;;56.25;46.00;18.70;46.90;;;;;;4703115;30;8938;-71
2022/05/04 05:38:27;;;;;;;;;59.25;47.50;18.80;46.90;;;;;;4702510;30;8940;-69
2022/05/04 05:40:53;;;;;;;;;60.00;47.75;18.80;46.70;;;;;;4702136;30;8909;-71
2022/05/04 05:43:19;;;;;;;;;58.50;46.75;18.70;46.80;;;;;;4703717;30;8960;-72
2022/05/04 05:45:44;;;;;;;;;54.00;45.50;18.90;46.70;;;;;;4703267;30;8833;-70
2022/05/04 05:48:10;;;;;;;;;57.25;47.00;19.00;47.50;;;;;;4703948;30;8869;-71
2022/05/04 05:50:36;;;;;;;;;50.50;43.25;19.10;47.80;;;;;;4703215;30;8837;-71
2022/05/04 05:53:03;;;;;;;;;54.75;44.50;19.10;47.20;;;;;;4703612;30;8813;-70
2022/05/04 05:55:29;;;;;;;;;53.25;44.25;19.20;46.60;;;;;;4703579;30;8907;-69
2022/05/04 05:57:55;;;;;;;;;49.25;39.75;19.20;46.40;;;;;;4703574;30;8842;-71
2022/05/04 06:00:21;;;;;;;;;49.00;41.50;19.20;46.00;;;;;;4702482;30;8949;-70
2022/05/04 06:02:47;;;;;;;;;47.75;40.00;19.20;46.00;;;;;;4703867;30;8838;-69
2022/05/04 06:05:13;;;;;;;;;47.25;39.00;19.20;46.40;;;;;;4702702;30;8939;-71
2022/05/04 06:07:39;;;;;;;;;42.00;36.00;19.30;46.00;;;;;;4699326;30;9591;-70
2022/05/04 06:10:05;;;;;;;;;45.00;37.33;19.30;45.90;;;;;;4685989;30;8828;-70
2022/05/04 06:12:31;;;;;;;;;39.00;35.00;19.40;45.70;;;;;;4702501;30;8836;-70
2022/05/04 06:14:57;;;;;;;;;42.00;35.67;19.50;46.10;;;;;;4702961;30;8829;-71
2022/05/04 06:17:23;;;;;;;;;48.50;39.75;19.50;46.00;;;;;;4701952;30;8873;-71
2022/05/04 06:19:48;;;;;;;;;48.00;40.00;19.50;46.60;;;;;;4702354;30;8876;-70
2022/05/04 06:22:14;;;;;;;;;52.75;44.50;19.50;47.00;;;;;;4701639;30;8846;-70
2022/05/04 06:24:40;;;;;;;;;51.00;42.50;19.60;46.70;;;;;;4703217;30;8853;-72
2022/05/04 06:27:06;;;;;;;;;50.25;41.00;19.50;46.90;;;;;;4716605;30;8925;-71
2022/05/04 06:35:04;;;;;;;;;53.00;44.00;19.60;46.80;;;;;;4702552;30;8837;-70
2022/05/04 06:37:31;;;;;;;;;52.75;43.00;19.30;47.00;;;;;;4702958;30;9465;-71
2022/05/04 06:39:56;;;;;;;;;51.50;41.50;19.50;46.90;;;;;;4703095;30;8869;-71
2022/05/04 06:42:22;;;;;;;;;51.25;43.00;19.70;46.70;;;;;;4702866;30;9498;-71
2022/05/04 06:44:48;;;;;;;;;51.00;41.75;19.80;46.50;;;;;;4709808;30;8865;-71
2022/05/04 06:47:13;;;;;;;;;52.75;44.75;19.90;46.90;;;;;;4702285;30;8861;-72
2022/05/04 06:49:39;;;;;;;;;53.25;44.00;20.00;47.20;;;;;;4702490;30;8838;-73
2022/05/04 06:52:06;;;;;;;;;53.75;45.75;20.10;46.30;;;;;;4702135;30;8829;-73
2022/05/04 06:54:32;;;;;;;;;51.75;44.00;20.10;46.30;;;;;;4702272;30;8826;-73
2022/05/04 06:56:57;;;;;;;;;56.25;45.25;20.20;46.40;;;;;;4702366;30;8973;-73
2022/05/04 06:59:23;;;;;;;;;54.25;44.50;20.30;45.90;;;;;;4702143;30;8849;-73
2022/05/04 07:01:49;;;;;;;;;54.50;45.00;20.30;45.70;;;;;;4702470;30;8810;-72
2022/05/04 07:04:16;;;;;;;;;56.25;46.00;20.40;45.60;;;;;;4702699;30;8794;-72
2022/05/04 07:06:42;;;;;;;;;55.00;45.50;20.50;45.30;;;;;;4702419;30;8828;-72
2022/05/04 07:09:07;;;;;;;;;52.25;42.00;20.50;45.10;;;;;;4702337;30;8833;-71
2022/05/04 07:11:33;;;;;;;;;55.25;46.00;20.60;44.90;;;;;;4702506;30;8805;-71
2022/05/04 07:13:59;;;;;;;;;50.25;42.00;20.70;45.10;;;;;;4701717;30;9473;-71
2022/05/04 07:16:25;;;;;;;;;53.00;44.50;20.80;44.80;;;;;;4700286;30;8817;-71
2022/05/04 07:18:50;;;;;;;;;53.25;43.25;20.80;44.60;;;;;;4702168;30;8988;-72
2022/05/04 07:21:16;;;;;;;;;49.00;42.00;20.90;44.20;;;;;;4702373;30;8912;-74
2022/05/04 07:23:42;;;;;;;;;49.00;41.25;21.00;44.30;;;;;;4702056;30;8813;-74
2022/05/04 07:26:07;;;;;;;;;51.33;43.67;21.00;44.30;;;;;;4702209;30;8883;-74
2022/05/04 07:28:33;;;;;;;;;41.00;36.67;21.10;44.80;;;;;;4701799;30;8817;-71
2022/05/04 07:30:59;;;;;;;;;40.33;36.00;21.10;43.60;;;;;;4702282;30;8830;-74
2022/05/04 07:33:24;;;;;;;;;40.33;35.67;21.20;43.50;;;;;;4702160;30;9054;-73
2022/05/04 07:35:50;;;;;;;;;36.33;33.00;21.20;43.00;;;;;;4701909;30;8956;-74
2022/05/04 07:38:16;;;;;;;;;34.00;32.67;21.20;43.10;;;;;;4702040;30;8836;-74
2022/05/04 07:43:26;;;;;;;;;33.67;32.00;21.20;42.90;;;;;;4701850;30;8801;-73
2022/05/04 07:45:52;;;;;;;;;48.00;39.75;21.40;42.70;;;;;;4701931;30;8836;-72
2022/05/04 07:48:18;;;;;;;;;59.75;47.50;21.40;43.00;;;;;;4702004;30;8861;-73
2022/05/04 07:50:43;;;;;;;;;57.25;45.75;21.50;43.10;;;;;;4701555;30;8911;-75
2022/05/04 07:53:09;;;;;;;;;48.00;40.50;21.60;42.90;;;;;;4701907;30;8806;-74
2022/05/04 07:55:36;;;;;;;;;48.75;41.00;21.80;42.70;;;;;;4701443;30;8837;-74
2022/05/04 07:58:02;;;;;;;;;54.75;44.50;21.80;42.60;;;;;;4701846;30;8825;-73
2022/05/04 08:05:56;;;;;;;;;73.75;55.00;22.10;43.20;;;;;;4701329;30;8802;-74
2022/05/04 08:08:22;;;;;;;;;60.75;47.75;22.20;43.00;;;;;;4701698;30;9532;-74
2022/05/04 08:10:48;;;;;;;;;49.33;40.33;22.30;42.60;;;;;;4701388;30;8837;-74
2022/05/04 08:13:14;;;;;;;;;40.00;35.33;22.40;42.50;;;;;;4701499;30;8915;-73
2022/05/04 08:15:40;;;;;;;;;34.67;32.33;22.40;42.10;;;;;;4701264;30;8829;-72
2022/05/04 08:18:06;;;;;;;;;29.67;27.67;22.50;41.90;;;;;;4701601;30;9515;-73
2022/05/04 08:20:32;;;;;;;;;32.67;32.33;22.60;41.80;;;;;;4700919;30;8877;-73
2022/05/04 08:22:59;;;;;;;;;26.67;25.33;22.60;41.20;;;;;;4701125;30;8821;-73
2022/05/04 08:25:25;;;;;;;;;32.67;31.33;22.70;41.00;;;;;;4701021;30;8833;-73
2022/05/04 08:27:51;;;;;;;;;34.00;32.00;22.80;41.50;;;;;;4701385;30;8830;-72
2022/05/04 08:30:17;;;;;;;;;42.00;36.00;22.80;42.40;;;;;;4701075;30;8825;-74
2022/05/04 08:32:47;;;;;;;;;36.33;32.67;22.90;42.70;;;;;;4701092;30;8830;-73
2022/05/04 08:35:13;;;;;;;;;38.67;32.00;23.00;42.30;;;;;;4701111;30;8931;-75
2022/05/04 08:37:40;;;;;;;;;31.67;31.67;23.10;42.90;;;;;;4701337;30;8844;-75
2022/05/04 08:40:08;;;;;;;;;32.00;31.00;23.10;42.80;;;;;;4700915;30;8849;-73
2022/05/04 08:42:39;;;;;;;;;34.67;30.33;23.10;40.60;;;;;;4700712;30;8948;-72
2022/05/04 08:45:07;;;;;;;;;28.67;28.67;23.20;40.10;;;;;;4701779;30;9464;-73
2022/05/04 08:47:34;;;;;;;;;30.67;30.67;23.30;39.60;;;;;;4701721;30;8880;-73
2022/05/04 08:50:02;;;;;;;;;31.67;29.00;23.30;41.70;;;;;;4701153;30;9551;-72
2022/05/04 08:52:30;;;;;;;;;28.00;28.00;23.40;41.10;;;;;;4700902;30;8810;-73
2022/05/04 08:54:56;;;;;;;;;28.00;24.67;23.50;41.20;;;;;;4700964;30;9437;-74
2022/05/04 08:57:22;;;;;;;;;26.67;25.67;23.60;41.40;;;;;;4700689;30;8870;-74
2022/05/04 08:59:48;;;;;;;;;31.33;29.33;23.80;41.10;;;;;;4700941;30;8869;-75
2022/05/04 09:02:13;;;;;;;;;25.67;25.67;24.00;40.80;;;;;;4701012;30;8895;-75
2022/05/04 09:04:42;;;;;;;;;28.67;28.00;24.00;39.10;;;;;;4700792;30;9485;-74
2022/05/04 09:07:24;;;;;;;;;27.67;26.00;24.20;38.80;;;;;;4701007;30;8813;-76
2022/05/04 09:09:54;;;;;;;;;28.33;24.33;24.30;38.00;;;;;;4700785;30;8849;-75
2022/05/04 09:12:20;;;;;;;;;29.00;27.00;24.40;38.10;;;;;;4700978;30;8806;-75
2022/05/04 09:14:46;;;;;;;;;29.33;28.33;24.50;37.60;;;;;;4700725;30;8834;-75
2022/05/04 09:17:15;;;;;;;;;22.00;22.00;24.70;37.50;;;;;;4700836;30;8857;-75
2022/05/04 09:22:40;;;;;;;;;30.00;26.00;24.90;36.30;;;;;;4700641;30;8814;-75
2022/05/04 09:25:18;;;;;;;;;27.67;27.00;25.10;35.90;;;;;;4700888;30;8813;-75
2022/05/04 09:27:45;;;;;;;;;27.67;26.67;25.20;35.10;;;;;;4700645;30;8816;-74
2022/05/04 09:30:11;;;;;;;;;26.00;25.00;25.30;34.70;;;;;;4699531;30;8871;-75
2022/05/04 09:32:41;;;;;;;;;24.00;23.67;25.60;35.40;;;;;;4700722;30;9019;-75
2022/05/04 09:35:14;;;;;;;;;18.33;18.33;25.70;35.10;;;;;;4700449;30;8810;-76
2022/05/04 09:45:55;;;;;;;;;27.00;26.00;26.10;32.00;;;;;;4700783;30;8806;-75
2022/05/04 09:48:34;;;;;;;;;29.00;29.00;26.30;31.20;;;;;;4700645;30;8869;-75
2022/05/04 09:51:08;;;;;;;;;36.00;31.67;26.50;31.00;;;;;;4700662;30;8845;-75
2022/05/04 09:53:36;;;;;;;;;44.67;36.33;26.60;30.50;;;;;;4703409;30;8817;-75
2022/05/04 09:56:03;;;;;;;;;24.33;24.33;26.80;29.90;;;;;;4703384;30;8980;-75
2022/05/04 09:58:30;;;;;;;;;21.33;20.33;27.00;29.70;;;;;;4703422;30;9485;-76
2022/05/04 10:00:57;;;;;;;;;20.67;19.33;27.10;30.10;;;;;;4703400;30;8829;-76
2022/05/04 10:03:24;;;;;;;;;18.67;16.33;27.10;29.60;;;;;;4702393;30;8845;-74
2022/05/04 10:05:50;;;;;;;;;70.67;54.33;27.30;28.70;;;;;;4716858;30;8841;-75
2022/05/04 10:08:17;;;;;;;;;44.00;35.00;27.40;28.90;;;;;;4703328;30;8830;-76
2022/05/04 10:10:44;;;;;;;;;21.00;21.00;27.40;27.00;;;;;;4703349;30;8825;-75
2022/05/04 10:13:10;;;;;;;;;19.33;19.33;27.60;26.70;;;;;;4703127;30;11803;-75
2022/05/04 10:15:41;;;;;;;;;18.00;16.67;27.90;27.00;;;;;;4703364;30;11772;-75
2022/05/04 10:18:29;;;;;;;;;18.33;18.33;28.20;27.40;;;;;;4703281;30;12449;-74
2022/05/04 10:21:11;;;;;;;;;17.00;17.00;28.30;26.40;;;;;;4703059;30;11768;-74
2022/05/04 10:23:52;;;;;;;;;19.00;17.33;28.50;26.00;;;;;;4703203;30;11758;-74
2022/05/04 10:26:34;;;;;;;;;16.00;15.33;28.80;26.20;;;;;;4703169;30;12516;-75
2022/05/04 10:31:56;;;;;;;;;18.00;17.00;28.90;24.50;;;;;;4702951;30;11703;-75
2022/05/04 10:34:22;;;;;;;;;12.33;11.00;28.90;24.70;;;;;;4703011;30;11784;-75
2022/05/04 10:36:52;;;;;;;;;15.33;15.33;28.80;24.30;;;;;;4703043;30;11707;-76
2022/05/04 10:39:23;;;;;;;;;16.00;16.00;29.00;25.30;;;;;;4702838;30;8861;-75
2022/05/04 10:41:49;;;;;;;;;16.67;16.00;29.30;24.10;;;;;;4703070;30;11716;-76
2022/05/04 10:44:16;;;;;;;;;15.25;14.25;29.70;24.80;;;;;;4702597;30;12418;-76
2022/05/04 10:46:46;;;;;;;;;15.25;15.00;29.70;23.50;;;;;;4702915;30;8821;-74
2022/05/04 10:49:14;;;;;;;;;14.00;14.00;29.70;23.90;;;;;;4702405;30;11788;-75
2022/05/04 10:51:42;;;;;;;;;16.75;16.75;29.90;23.70;;;;;;4702570;30;11734;-75
2022/05/04 10:54:18;;;;;;;;;15.50;15.50;30.20;23.90;;;;;;4702470;30;11749;-74
2022/05/04 10:56:52;;;;;;;;;15.25;15.00;30.20;23.80;;;;;;4702348;30;12572;-76
2022/05/04 10:59:27;;;;;;;;;21.67;20.00;30.50;23.70;;;;;;4702338;30;11775;-76
2022/05/04 11:02:00;;;;;;;;;14.75;13.00;30.50;23.40;;;;;;4702510;30;11765;-77
2022/05/04 11:04:26;;;;;;;;;11.50;11.50;30.40;22.90;;;;;;4702020;30;11764;-74
2022/05/04 11:07:04;;;;;;;;;12.50;12.50;30.60;22.60;;;;;;4715847;30;11853;-77
2022/05/04 11:09:38;;;;;;;;;14.00;14.00;30.70;22.60;;;;;;4702184;30;11747;-77
2022/05/04 11:12:05;;;;;;;;;13.75;13.50;31.40;22.70;;;;;;4702230;30;11905;-76
2022/05/04 11:14:33;;;;;;;;;14.75;14.75;31.80;23.60;;;;;;4702428;30;12443;-77
2022/05/04 11:17:00;;;;;;;;;13.75;13.75;31.90;22.60;;;;;;4701835;30;11904;-76
2022/05/04 11:19:28;;;;;;;;;13.25;13.25;32.30;22.60;;;;;;4702012;30;11804;-76
2022/05/04 11:21:56;;;;;;;;;13.00;13.00;33.50;21.50;;;;;;4701890;30;11749;-77
2022/05/04 11:24:25;;;;;;;;;16.50;15.50;38.80;20.70;;;;;;4701945;30;11728;-77
2022/05/04 11:26:52;;;;;;;;;13.25;13.25;45.50;18.30;;;;;;4701827;30;11778;-77
2022/05/04 11:29:28;;;;;;;;;13.75;13.75;48.40;16.30;;;;;;4701970;30;11829;-74
2022/05/04 11:31:57;;;;;;;;;14.00;14.00;52.00;14.70;;;;;;4702183;30;11736;-75
2022/05/04 11:34:25;;;;;;;;;12.25;12.25;54.20;13.50;;;;;;4701800;30;11753;-75
2022/05/04 11:36:52;;;;;;;;;13.00;13.00;56.20;13.10;;;;;;4701866;30;12498;-74
2022/05/04 11:39:25;;;;;;;;;6.75;6.75;56.90;12.30;;;;;;4702018;30;12762;-75
2022/05/04 11:41:54;;;;;;;;;13.50;13.50;56.40;11.90;;;;;;4701929;30;12318;-75
2022/05/04 11:44:21;;;;;;;;;16.25;16.25;57.60;12.20;;;;;;4701676;30;11741;-75
2022/05/04 11:46:51;;;;;;;;;11.50;11.50;58.20;11.80;;;;;;4701472;30;11775;-75
2022/05/04 11:49:19;;;;;;;;;12.00;12.00;59.20;11.40;;;;;;4701656;30;11838;-74
2022/05/04 11:51:44;;;;;;;;;13.50;13.50;59.50;11.10;;;;;;4701600;30;12416;-73
2022/05/04 11:54:10;;;;;;;;;12.50;12.50;58.40;11.20;;;;;;4701501;30;11811;-74
2022/05/04 11:56:36;;;;;;;;;10.25;10.25;57.90;10.80;;;;;;4700447;30;8884;-75
2022/05/04 11:59:03;;;;;;;;;13.25;13.25;57.50;11.10;;;;;;4701420;30;8976;-76
2022/05/04 12:01:30;;;;;;;;;12.75;12.75;57.40;10.80;;;;;;4714849;30;11852;-75
2022/05/04 12:03:56;;;;;;;;;13.50;13.50;58.00;10.70;;;;;;4701536;30;11737;-74
2022/05/04 12:06:22;;;;;;;;;10.00;10.00;58.40;10.50;;;;;;4700957;30;11848;-74
2022/05/04 12:08:49;;;;;;;;;12.00;12.00;58.70;10.80;;;;;;4701392;30;11854;-75
2022/05/04 12:11:16;;;;;;;;;11.25;11.25;58.90;10.60;;;;;;4701367;30;11808;-75
2022/05/04 12:13:42;;;;;;;;;11.00;11.00;58.90;10.20;;;;;;4701102;30;11733;-77
2022/05/04 12:16:10;;;;;;;;;11.75;11.75;58.20;10.30;;;;;;4699788;30;12517;-74
2022/05/04 12:18:37;;;;;;;;;10.75;10.75;58.10;10.40;;;;;;4701414;30;11770;-73
2022/05/04 12:21:10;;;;;;;;;12.00;12.00;56.80;10.20;;;;;;4701096;30;11734;-75
2022/05/04 12:23:41;;;;;;;;;11.25;11.25;56.40;10.50;;;;;;4699124;30;11841;-76
2022/05/04 12:26:10;;;;;;;;;12.00;12.00;51.80;10.00;;;;;;4700965;30;11870;-75
2022/05/04 12:28:37;;;;;;;;;12.25;12.25;47.70;11.00;;;;;;4700801;30;11809;-75
2022/05/04 12:33:50;;;;;;;;;10.75;10.75;41.70;13.80;;;;;;4699838;30;11836;-74
2022/05/04 12:36:18;;;;;;;;;9.50;9.50;39.80;15.10;;;;;;4693245;30;11739;-76
2022/05/04 12:38:48;;;;;;;;;9.25;9.25;38.50;16.20;;;;;;4701080;30;11739;-77
2022/05/04 12:41:22;;;;;;;;;8.00;8.00;37.10;16.70;;;;;;4701147;30;11680;-75
2022/05/04 12:43:51;;;;;;;;;13.75;13.75;36.10;16.80;;;;;;4700768;30;11829;-75
2022/05/04 12:46:18;;;;;;;;;12.50;12.50;35.70;17.80;;;;;;4700753;30;11715;-74
2022/05/04 12:48:45;;;;;;;;;11.25;11.25;35.30;19.00;;;;;;4700510;30;11746;-73
2022/05/04 12:51:14;;;;;;;;;8.75;8.75;35.20;18.10;;;;;;4699159;30;11752;-74
2022/05/04 12:53:40;;;;;;;;;11.00;11.00;34.60;18.40;;;;;;4699553;30;11722;-75
2022/05/04 12:58:52;;;;;;;;;10.75;10.75;33.80;18.30;;;;;;4699991;30;11734;-74
2022/05/04 13:01:24;;;;;;;;;9.25;9.25;33.90;18.90;;;;;;4699942;30;11760;-74
2022/05/04 13:03:50;;;;;;;;;11.75;11.75;33.90;18.40;;;;;;4699739;30;11748;-76
2022/05/04 13:06:17;;;;;;;;;12.75;12.75;33.90;19.30;;;;;;4701175;30;11760;-72
2022/05/04 13:08:43;;;;;;;;;9.00;9.00;34.00;19.50;;;;;;4700754;30;11772;-75
2022/05/04 13:11:09;;;;;;;;;12.00;12.00;33.80;20.40;;;;;;4700528;30;11697;-75
2022/05/04 13:13:35;;;;;;;;;10.00;10.00;34.00;20.10;;;;;;4700666;30;8930;-74
2022/05/04 13:16:00;;;;;;;;;13.25;13.25;34.30;19.50;;;;;;4700118;30;8860;-75
2022/05/04 13:18:26;;;;;;;;;13.00;13.00;34.10;18.90;;;;;;4700337;30;8860;-75
2022/05/04 13:20:52;;;;;;;;;9.25;9.25;34.30;19.40;;;;;;4700590;30;8846;-71